»·PEaware :: N162PT KTOA-KVNY

N162PT :: KTOA-KVNY

FLIGHT INFORMATION

Flight Status: Arrived
Operator: Privately registered:
United States
More flights under this callsign
Pilot: Anonymous 16342 (16342)
Aircraft: CESSNA 172 SKYHAWK
(C172)
More flights by this aircraft type
Origin: KTOA Zamperini
United States
Destination: KVNY Van Nuys
United States
More flights between these airports :: More routes between these airports
Route:
File this flight plan on PilotEdge
Remarks: Cat 10
Altitude:
(Current/Filed)
2,500ft
Speed:
(Current/Filed)
110kts
Departed: 08-Jun-18 12:32 PM
Arrived: 08-Jun-18 01:17 PM
Distance/Time
Traveled:
26nm/0:44
Distance/Time
To Go:
Arrived

Flight Plot

Page will automatically refresh every two minutes.


Map Options




Map Legend


Flown Route
Filed Route
Departure Airport
Arrival Airport
Navaid (VOR, NDB)
Fix

Horizontal Profiles

Position Reports

Time Latitude Longitude Heading Altitude Ground
Speed
08-Jun-18 12:03 33.803347 -118.344052 39 101ft 0kts
08-Jun-18 12:04 33.803347 -118.344052 39 101ft 0kts
08-Jun-18 12:05 33.803347 -118.344052 38 101ft 0kts
08-Jun-18 12:06 33.803347 -118.344052 39 101ft 0kts
08-Jun-18 12:07 33.803347 -118.344051 38 101ft 0kts
08-Jun-18 12:08 33.803347 -118.344051 38 101ft 0kts
08-Jun-18 12:09 33.803347 -118.344051 38 101ft 0kts
08-Jun-18 12:10 33.803347 -118.344051 38 101ft 0kts
08-Jun-18 12:11 33.803347 -118.344051 38 101ft 0kts
08-Jun-18 12:12 33.803347 -118.344051 38 101ft 0kts
08-Jun-18 12:13 33.803347 -118.344051 38 101ft 0kts
08-Jun-18 12:14 33.803347 -118.344051 38 101ft 0kts
08-Jun-18 12:15 33.803347 -118.344051 38 101ft 0kts
08-Jun-18 12:16 33.803347 -118.344051 38 101ft 0kts
08-Jun-18 12:17 33.803347 -118.344051 38 101ft 0kts
08-Jun-18 12:18 33.803347 -118.344051 39 101ft 0kts
08-Jun-18 12:19 33.803347 -118.344051 39 101ft 0kts
08-Jun-18 12:20 33.803347 -118.344051 39 101ft 0kts
08-Jun-18 12:21 33.803347 -118.344051 39 101ft 0kts
08-Jun-18 12:22 33.803347 -118.344051 39 101ft 0kts
08-Jun-18 12:23 33.803347 -118.344051 39 101ft 0kts
08-Jun-18 12:24 33.803347 -118.344051 39 101ft 0kts
08-Jun-18 12:25 33.803347 -118.344051 39 101ft 0kts
08-Jun-18 12:26 33.803368 -118.344029 42 101ft 3kts
08-Jun-18 12:27 33.802363 -118.341042 128 101ft 17kts
08-Jun-18 12:28 33.798827 -118.335727 127 101ft 14kts
08-Jun-18 12:29 33.799192 -118.333201 39 101ft 0kts
08-Jun-18 12:30 33.799221 -118.333171 39 101ft 0kts
08-Jun-18 12:31 33.800601 -118.334410 308 101ft 37kts
08-Jun-18 12:32 33.810426 -118.349848 316 749ft 58kts
08-Jun-18 12:33 33.823837 -118.360840 325 1461ft 59kts
08-Jun-18 12:34 33.838424 -118.367316 335 1937ft 50kts
08-Jun-18 12:44 33.803347 -118.344051 39 101ft 0kts
08-Jun-18 12:45 33.803347 -118.344051 39 101ft 0kts
08-Jun-18 12:46 33.803347 -118.344051 39 101ft 0kts
08-Jun-18 12:47 33.803347 -118.344051 39 101ft 0kts
08-Jun-18 12:48 33.802592 -118.341396 127 101ft 16kts
08-Jun-18 12:49 33.799634 -118.336918 125 101ft 17kts
08-Jun-18 12:50 33.798462 -118.333500 57 101ft 9kts
08-Jun-18 12:51 33.798847 -118.333136 335 101ft 0kts
08-Jun-18 12:52 33.799175 -118.333231 38 101ft 0kts
08-Jun-18 12:53 33.800686 -118.334650 304 101ft 46kts
08-Jun-18 12:54 33.813005 -118.348656 320 762ft 60kts
08-Jun-18 12:55 33.827741 -118.358817 324 1689ft 63kts
08-Jun-18 12:56 33.844502 -118.367659 345 2513ft 85kts
08-Jun-18 12:57 33.868307 -118.367369 9 2518ft 86kts
08-Jun-18 12:58 33.890824 -118.359502 359 2518ft 81kts
08-Jun-18 12:59 33.910841 -118.367903 326 2506ft 76kts
08-Jun-18 13:00 33.929025 -118.380762 323 2501ft 77kts
08-Jun-18 13:01 33.946711 -118.393706 323 2501ft 77kts
08-Jun-18 13:02 33.964879 -118.407319 323 2501ft 77kts
08-Jun-18 13:03 33.983258 -118.420373 327 2493ft 77kts
08-Jun-18 13:04 34.003526 -118.428848 344 2488ft 79kts
08-Jun-18 13:05 34.024756 -118.434517 342 2484ft 78kts
08-Jun-18 13:06 34.045604 -118.440616 342 2479ft 78kts
08-Jun-18 13:07 34.066444 -118.446888 342 2475ft 77kts
08-Jun-18 13:08 34.085260 -118.452676 342 2474ft 77kts
08-Jun-18 13:09 34.104918 -118.463509 331 2136ft 97kts
08-Jun-18 13:10 34.126385 -118.481508 321 1989ft 91kts
08-Jun-18 13:11 34.146434 -118.498535 327 1983ft 88kts
08-Jun-18 13:12 34.170553 -118.510061 357 1714ft 92kts
08-Jun-18 13:13 34.194906 -118.508505 4 1740ft 84kts
08-Jun-18 13:14 34.218485 -118.506286 5 1778ft 89kts
08-Jun-18 13:15 34.242106 -118.500457 76 1604ft 90kts
08-Jun-18 13:16 34.222020 -118.491703 172 908ft 68kts
08-Jun-18 13:17 34.210961 -118.490513 176 806ft 13kts
08-Jun-18 13:18 34.210133 -118.491313 265 806ft 0kts
08-Jun-18 13:19 34.210133 -118.491313 265 806ft 0kts
08-Jun-18 13:20 34.213365 -118.491880 357 806ft 19kts
08-Jun-18 13:21 34.214793 -118.492151 66 806ft 0kts
08-Jun-18 13:22 34.214793 -118.492151 66 806ft 0kts
08-Jun-18 13:23 34.214793 -118.492151 66 806ft 0kts
08-Jun-18 13:24 34.214793 -118.492151 66 806ft 0kts
08-Jun-18 13:25 34.214793 -118.492151 66 806ft 0kts
08-Jun-18 13:26 34.214793 -118.492151 66 806ft 0kts
08-Jun-18 13:27 34.214793 -118.492151 66 806ft 0kts
08-Jun-18 13:28 34.214793 -118.492151 66 806ft 0kts
08-Jun-18 13:29 34.214793 -118.492151 66 806ft 0kts
08-Jun-18 13:30 34.214793 -118.492151 66 806ft 0kts
08-Jun-18 13:31 34.214793 -118.492151 66 806ft 0kts

Navigation Log

Ident Type
Flight plan parsing failed, navigation log unavailable